sensor_id;sensor_type;location;lat;lon;timestamp;pressure;altitude;pressure_sealevel;temperature;humidity
13709;BME280;54933;51.908;7.730;2023-05-01T00:00:03;101206.09;;;20.92;67.31
13709;BME280;54933;51.908;7.730;2023-05-01T00:02:29;101196.94;;;20.93;67.19
13709;BME280;54933;51.908;7.730;2023-05-01T00:04:54;101195.06;;;20.94;67.09
13709;BME280;54933;51.908;7.730;2023-05-01T00:07:20;101194.25;;;20.93;67.04
13709;BME280;54933;51.908;7.730;2023-05-01T00:09:45;101188.84;;;20.93;67.06
13709;BME280;54933;51.908;7.730;2023-05-01T00:12:10;101176.38;;;20.92;66.99
13709;BME280;54933;51.908;7.730;2023-05-01T00:14:36;101182.63;;;20.93;66.98
13709;BME280;54933;51.908;7.730;2023-05-01T00:17:01;101173.69;;;20.92;67.00
13709;BME280;54933;51.908;7.730;2023-05-01T00:19:26;101176.38;;;20.92;67.03
13709;BME280;54933;51.908;7.730;2023-05-01T00:21:51;101171.81;;;20.93;67.17
13709;BME280;54933;51.908;7.730;2023-05-01T00:24:17;101165.56;;;20.92;66.84
13709;BME280;54933;51.908;7.730;2023-05-01T00:26:42;101165.56;;;20.92;67.23
13709;BME280;54933;51.908;7.730;2023-05-01T00:29:09;101163.91;;;20.91;66.91
13709;BME280;54933;51.908;7.730;2023-05-01T00:31:34;101160.16;;;20.92;67.02
13709;BME280;54933;51.908;7.730;2023-05-01T00:34:00;101156.84;;;20.90;67.02
13709;BME280;54933;51.908;7.730;2023-05-01T00:41:16;101145.00;;;20.91;66.95
13709;BME280;54933;51.908;7.730;2023-05-01T00:43:41;101136.91;;;20.91;66.50
13709;BME280;54933;51.908;7.730;2023-05-01T00:48:32;101145.00;;;20.91;66.75
13709;BME280;54933;51.908;7.730;2023-05-01T00:58:16;101131.50;;;20.91;66.95
13709;BME280;54933;51.908;7.730;2023-05-01T01:00:42;101120.69;;;20.91;66.81
13709;BME280;54933;51.908;7.730;2023-05-01T01:03:08;101126.09;;;20.91;66.88
13709;BME280;54933;51.908;7.730;2023-05-01T01:05:39;101113.63;;;20.90;66.99
13709;BME280;54933;51.908;7.730;2023-05-01T01:08:14;101118.22;;;20.90;67.01
13709;BME280;54933;51.908;7.730;2023-05-01T01:11:12;101113.63;;;20.90;67.02
13709;BME280;54933;51.908;7.730;2023-05-01T01:13:45;101111.97;;;20.89;66.88
13709;BME280;54933;51.908;7.730;2023-05-01T01:16:16;101109.91;;;20.91;66.84
13709;BME280;54933;51.908;7.730;2023-05-01T01:18:51;101108.22;;;20.90;66.97
13709;BME280;54933;51.908;7.730;2023-05-01T01:21:30;101095.75;;;20.89;67.00
13709;BME280;54933;51.908;7.730;2023-05-01T01:35:12;101082.25;;;20.89;66.84
13709;BME280;54933;51.908;7.730;2023-05-01T01:37:50;101083.31;;;20.88;66.98
13709;BME280;54933;51.908;7.730;2023-05-01T01:40:23;101072.50;;;20.88;67.06
13709;BME280;54933;51.908;7.730;2023-05-01T01:42:58;101068.75;;;20.89;66.81
13709;BME280;54933;51.908;7.730;2023-05-01T01:45:33;101067.09;;;20.88;66.89
13709;BME280;54933;51.908;7.730;2023-05-01T01:48:01;101062.50;;;20.89;67.09
13709;BME280;54933;51.908;7.730;2023-05-01T01:50:27;101062.28;;;20.90;67.00
13709;BME280;54933;51.908;7.730;2023-05-01T01:52:53;101068.75;;;20.89;66.88
13709;BME280;54933;51.908;7.730;2023-05-01T01:55:21;101061.47;;;20.90;66.94
13709;BME280;54933;51.908;7.730;2023-05-01T01:57:49;101062.50;;;20.89;66.92
13709;BME280;54933;51.908;7.730;2023-05-01T02:00:15;101052.53;;;20.89;67.15
13709;BME280;54933;51.908;7.730;2023-05-01T02:02:42;101051.50;;;20.90;66.92
13709;BME280;54933;51.908;7.730;2023-05-01T02:05:12;101048.78;;;20.90;67.32
13709;BME280;54933;51.908;7.730;2023-05-01T02:07:39;101041.72;;;20.89;67.14
13709;BME280;54933;51.908;7.730;2023-05-01T02:10:10;101045.50;;;20.88;67.12
13709;BME280;54933;51.908;7.730;2023-05-01T02:12:36;101047.97;;;20.90;67.09
13709;BME280;54933;51.908;7.730;2023-05-01T02:15:05;101045.28;;;20.90;67.03
13709;BME280;54933;51.908;7.730;2023-05-01T02:17:32;101043.38;;;20.90;66.99
13709;BME280;54933;51.908;7.730;2023-05-01T02:19:59;101050.47;;;20.91;67.22
13709;BME280;54933;51.908;7.730;2023-05-01T02:24:53;101038.59;;;20.92;67.10
13709;BME280;54933;51.908;7.730;2023-05-01T02:27:22;101036.97;;;20.91;67.04
13709;BME280;54933;51.908;7.730;2023-05-01T02:29:49;101039.66;;;20.91;67.05
13709;BME280;54933;51.908;7.730;2023-05-01T02:34:40;101028.84;;;20.91;67.02
13709;BME280;54933;51.908;7.730;2023-05-01T02:37:06;101025.94;;;20.93;67.07
13709;BME280;54933;51.908;7.730;2023-05-01T02:39:35;101017.00;;;20.92;67.08
13709;BME280;54933;51.908;7.730;2023-05-01T02:44:38;101006.19;;;20.92;67.26
13709;BME280;54933;51.908;7.730;2023-05-01T02:47:06;101012.44;;;20.93;67.18
13709;BME280;54933;51.908;7.730;2023-05-01T02:49:34;101000.78;;;20.92;66.84
13709;BME280;54933;51.908;7.730;2023-05-01T02:51:59;101005.13;;;20.93;67.24
13709;BME280;54933;51.908;7.730;2023-05-01T02:54:25;100988.13;;;20.93;67.14
13709;BME280;54933;51.908;7.730;2023-05-01T02:59:16;100991.63;;;20.93;66.87
13709;BME280;54933;51.908;7.730;2023-05-01T03:01:41;100992.69;;;20.92;67.12
13709;BME280;54933;51.908;7.730;2023-05-01T03:04:07;101001.41;;;20.94;67.17
13709;BME280;54933;51.908;7.730;2023-05-01T03:06:32;100987.28;;;20.92;67.13
13709;BME280;54933;51.908;7.730;2023-05-01T03:08:57;100985.44;;;20.93;67.01
13709;BME280;54933;51.908;7.730;2023-05-01T03:11:22;100983.53;;;20.93;67.33
13709;BME280;54933;51.908;7.730;2023-05-01T03:13:48;100985.22;;;20.94;67.28
13709;BME280;54933;51.908;7.730;2023-05-01T03:16:13;100980.03;;;20.93;67.06
13709;BME280;54933;51.908;7.730;2023-05-01T03:18:39;100984.38;;;20.94;67.32
13709;BME280;54933;51.908;7.730;2023-05-01T03:23:29;100975.44;;;20.93;67.23
13709;BME280;54933;51.908;7.730;2023-05-01T03:25:54;100971.06;;;20.92;67.20
13709;BME280;54933;51.908;7.730;2023-05-01T03:28:21;100964.63;;;20.93;67.14
13709;BME280;54933;51.908;7.730;2023-05-01T03:30:49;100960.28;;;20.92;67.45
13709;BME280;54933;51.908;7.730;2023-05-01T03:33:14;100970.03;;;20.93;67.21
13709;BME280;54933;51.908;7.730;2023-05-01T03:35:39;100957.56;;;20.92;67.10
13709;BME280;54933;51.908;7.730;2023-05-01T03:38:05;100954.88;;;20.92;67.28
13709;BME280;54933;51.908;7.730;2023-05-01T03:40:30;100947.81;;;20.91;66.98
13709;BME280;54933;51.908;7.730;2023-05-01T03:42:55;100946.13;;;20.90;67.03
13709;BME280;54933;51.908;7.730;2023-05-01T03:45:20;100955.91;;;20.91;67.14
13709;BME280;54933;51.908;7.730;2023-05-01T03:47:46;100946.13;;;20.90;66.67
13709;BME280;54933;51.908;7.730;2023-05-01T03:50:11;100940.75;;;20.90;67.08
13709;BME280;54933;51.908;7.730;2023-05-01T03:52:36;100942.41;;;20.91;67.12
13709;BME280;54933;51.908;7.730;2023-05-01T03:55:02;100940.75;;;20.90;67.15
13709;BME280;54933;51.908;7.730;2023-05-01T03:57:27;100935.34;;;20.90;67.13
13709;BME280;54933;51.908;7.730;2023-05-01T03:59:52;100935.34;;;20.90;67.21
13709;BME280;54933;51.908;7.730;2023-05-01T04:02:18;100932.63;;;20.90;66.99
13709;BME280;54933;51.908;7.730;2023-05-01T04:04:44;100937.00;;;20.91;67.22
13709;BME280;54933;51.908;7.730;2023-05-01T04:07:09;100937.00;;;20.91;67.21
13709;BME280;54933;51.908;7.730;2023-05-01T04:09:35;100937.00;;;20.91;67.01
13709;BME280;54933;51.908;7.730;2023-05-01T04:12:01;100932.63;;;20.90;67.05
13709;BME280;54933;51.908;7.730;2023-05-01T04:14:27;100931.63;;;20.91;67.21
13709;BME280;54933;51.908;7.730;2023-05-01T04:16:52;100935.34;;;20.90;67.17
13709;BME280;54933;51.908;7.730;2023-05-01T04:19:17;100935.34;;;20.90;67.01
13709;BME280;54933;51.908;7.730;2023-05-01T04:21:43;100931.63;;;20.91;67.02
13709;BME280;54933;51.908;7.730;2023-05-01T04:24:08;100937.00;;;20.91;67.47
13709;BME280;54933;51.908;7.730;2023-05-01T04:26:33;100924.53;;;20.90;67.18
13709;BME280;54933;51.908;7.730;2023-05-01T04:28:58;100934.53;;;20.90;66.97
13709;BME280;54933;51.908;7.730;2023-05-01T04:31:25;100927.22;;;20.90;66.89
13709;BME280;54933;51.908;7.730;2023-05-01T04:33:50;100934.31;;;20.91;67.03
13709;BME280;54933;51.908;7.730;2023-05-01T04:36:15;100916.44;;;20.90;67.04
13709;BME280;54933;51.908;7.730;2023-05-01T04:38:41;100929.13;;;20.90;67.21
13709;BME280;54933;51.908;7.730;2023-05-01T04:41:06;100925.59;;;20.89;66.87
13709;BME280;54933;51.908;7.730;2023-05-01T04:43:31;100922.03;;;20.89;66.95
13709;BME280;54933;51.908;7.730;2023-05-01T04:45:57;100921.03;;;20.90;67.11
13709;BME280;54933;51.908;7.730;2023-05-01T04:48:22;100923.72;;;20.90;67.06
13709;BME280;54933;51.908;7.730;2023-05-01T04:50:47;100925.59;;;20.89;67.00
13709;BME280;54933;51.908;7.730;2023-05-01T04:53:12;100920.19;;;20.89;67.16
13709;BME280;54933;51.908;7.730;2023-05-01T04:55:38;100915.63;;;20.90;67.11
13709;BME280;54933;51.908;7.730;2023-05-01T04:58:03;100916.44;;;20.90;67.00
13709;BME280;54933;51.908;7.730;2023-05-01T05:00:29;100915.41;;;20.91;67.13
13709;BME280;54933;51.908;7.730;2023-05-01T05:02:55;100926.22;;;20.91;67.12
13709;BME280;54933;51.908;7.730;2023-05-01T05:05:20;100911.03;;;20.90;67.07
13709;BME280;54933;51.908;7.730;2023-05-01T05:07:45;100918.31;;;20.90;67.43
13709;BME280;54933;51.908;7.730;2023-05-01T05:10:11;100907.50;;;20.90;67.35
13709;BME280;54933;51.908;7.730;2023-05-01T05:12:36;100916.44;;;20.90;66.99
13709;BME280;54933;51.908;7.730;2023-05-01T05:15:01;100918.09;;;20.91;67.40
13709;BME280;54933;51.908;7.730;2023-05-01T05:17:27;100922.44;;;20.92;67.15
13709;BME280;54933;51.908;7.730;2023-05-01T05:22:17;100915.41;;;20.91;67.27
13709;BME280;54933;51.908;7.730;2023-05-01T05:27:09;100915.41;;;20.91;67.42
13709;BME280;54933;51.908;7.730;2023-05-01T05:29:34;100917.06;;;20.92;67.36
13709;BME280;54933;51.908;7.730;2023-05-01T05:31:59;100910.00;;;20.91;67.19
13709;BME280;54933;51.908;7.730;2023-05-01T05:34:25;100914.34;;;20.92;67.36
13709;BME280;54933;51.908;7.730;2023-05-01T05:36:50;100910.00;;;20.91;67.26
13709;BME280;54933;51.908;7.730;2023-05-01T05:39:16;100911.66;;;20.92;67.44
13709;BME280;54933;51.908;7.730;2023-05-01T05:41:41;100908.94;;;20.92;67.46
13709;BME280;54933;51.908;7.730;2023-05-01T05:44:06;100917.88;;;20.93;67.33
13709;BME280;54933;51.908;7.730;2023-05-01T05:46:32;100911.66;;;20.92;67.45
13709;BME280;54933;51.908;7.730;2023-05-01T05:48:57;100911.66;;;20.92;67.03
13709;BME280;54933;51.908;7.730;2023-05-01T05:51:22;100915.19;;;20.93;67.56
13709;BME280;54933;51.908;7.730;2023-05-01T05:53:48;100920.59;;;20.93;67.30
13709;BME280;54933;51.908;7.730;2023-05-01T05:58:38;100904.59;;;20.91;67.22
13709;BME280;54933;51.908;7.730;2023-05-01T06:01:04;100905.19;;;20.93;67.23
13709;BME280;54933;51.908;7.730;2023-05-01T06:03:31;100906.25;;;20.92;67.49
13709;BME280;54933;51.908;7.730;2023-05-01T06:05:56;100907.09;;;20.93;67.63
13709;BME280;54933;51.908;7.730;2023-05-01T06:08:21;100898.97;;;20.93;67.49
13709;BME280;54933;51.908;7.730;2023-05-01T06:10:47;100901.47;;;20.94;67.60
13709;BME280;54933;51.908;7.730;2023-05-01T06:13:12;100902.50;;;20.93;67.48
13709;BME280;54933;51.908;7.730;2023-05-01T06:15:38;100895.22;;;20.94;67.37
13709;BME280;54933;51.908;7.730;2023-05-01T06:18:04;100907.91;;;20.93;67.49
13709;BME280;54933;51.908;7.730;2023-05-01T06:20:30;100911.44;;;20.94;67.66
13709;BME280;54933;51.908;7.730;2023-05-01T06:22:55;100897.09;;;20.93;67.67
13709;BME280;54933;51.908;7.730;2023-05-01T06:25:21;100898.75;;;20.94;67.58
13709;BME280;54933;51.908;7.730;2023-05-01T06:27:48;100903.34;;;20.94;67.52
13709;BME280;54933;51.908;7.730;2023-05-01T06:30:13;100893.38;;;20.94;67.41
13709;BME280;54933;51.908;7.730;2023-05-01T06:32:38;100897.94;;;20.94;67.53
13709;BME280;54933;51.908;7.730;2023-05-01T06:35:06;100897.94;;;20.94;67.47
13709;BME280;54933;51.908;7.730;2023-05-01T06:37:32;100893.38;;;20.94;67.34
13709;BME280;54933;51.908;7.730;2023-05-01T06:39:57;100904.16;;;20.94;67.36
13709;BME280;54933;51.908;7.730;2023-05-01T06:42:22;100898.75;;;20.94;67.48
13709;BME280;54933;51.908;7.730;2023-05-01T06:44:47;100894.38;;;20.93;67.52
13709;BME280;54933;51.908;7.730;2023-05-01T06:47:13;100896.28;;;20.93;67.39
13709;BME280;54933;51.908;7.730;2023-05-01T06:49:38;100902.50;;;20.93;67.48
13709;BME280;54933;51.908;7.730;2023-05-01T06:52:03;100901.47;;;20.94;67.54
13709;BME280;54933;51.908;7.730;2023-05-01T06:54:29;100902.50;;;20.93;67.56
13709;BME280;54933;51.908;7.730;2023-05-01T06:56:54;100896.28;;;20.93;67.51
13709;BME280;54933;51.908;7.730;2023-05-01T06:59:20;100896.28;;;20.93;67.81
13709;BME280;54933;51.908;7.730;2023-05-01T07:01:45;100902.50;;;20.93;67.28
13709;BME280;54933;51.908;7.730;2023-05-01T07:04:10;100898.75;;;20.94;67.55
13709;BME280;54933;51.908;7.730;2023-05-01T07:06:35;100904.38;;;20.93;67.50
13709;BME280;54933;51.908;7.730;2023-05-01T07:09:02;100895.22;;;20.94;67.49
13709;BME280;54933;51.908;7.730;2023-05-01T07:11:27;100901.47;;;20.94;67.60
13709;BME280;54933;51.908;7.730;2023-05-01T07:13:53;100895.84;;;20.96;67.47
13709;BME280;54933;51.908;7.730;2023-05-01T07:16:18;100895.84;;;20.96;67.63
13709;BME280;54933;51.908;7.730;2023-05-01T07:18:44;100893.16;;;20.96;67.91
13709;BME280;54933;51.908;7.730;2023-05-01T07:21:10;100885.88;;;20.96;68.00
13709;BME280;54933;51.908;7.730;2023-05-01T07:23:36;100884.88;;;20.97;67.99
13709;BME280;54933;51.908;7.730;2023-05-01T07:26:01;100887.56;;;20.97;68.11
13709;BME280;54933;51.908;7.730;2023-05-01T07:28:27;100887.56;;;20.97;68.01
13709;BME280;54933;51.908;7.730;2023-05-01T07:30:52;100884.88;;;20.97;68.03
13709;BME280;54933;51.908;7.730;2023-05-01T07:33:17;100882.16;;;20.97;68.29
13709;BME280;54933;51.908;7.730;2023-05-01T07:35:43;100882.16;;;20.97;68.10
13709;BME280;54933;51.908;7.730;2023-05-01T07:38:08;100883.00;;;20.98;68.49
13709;BME280;54933;51.908;7.730;2023-05-01T07:40:33;100883.81;;;20.98;68.37
13709;BME280;54933;51.908;7.730;2023-05-01T07:42:59;100880.09;;;20.99;68.53
13709;BME280;54933;51.908;7.730;2023-05-01T07:45:25;100881.72;;;21.00;68.20
13709;BME280;54933;51.908;7.730;2023-05-01T07:47:50;100883.41;;;21.01;68.48
13709;BME280;54933;51.908;7.730;2023-05-01T07:50:16;100874.25;;;21.02;68.54
13709;BME280;54933;51.908;7.730;2023-05-01T07:52:42;100880.50;;;21.03;68.34
13709;BME280;54933;51.908;7.730;2023-05-01T07:55:07;100869.69;;;21.03;68.37
13709;BME280;54933;51.908;7.730;2023-05-01T07:57:34;100875.88;;;21.03;68.51
13709;BME280;54933;51.908;7.730;2023-05-01T08:00:00;100867.56;;;21.05;68.49
13709;BME280;54933;51.908;7.730;2023-05-01T08:02:25;100869.25;;;21.06;68.21
13709;BME280;54933;51.908;7.730;2023-05-01T08:04:50;100872.56;;;21.08;68.46
13709;BME280;54933;51.908;7.730;2023-05-01T08:07:16;100873.38;;;21.08;68.11
13709;BME280;54933;51.908;7.730;2023-05-01T08:09:41;100874.22;;;21.09;68.48
13709;BME280;54933;51.908;7.730;2023-05-01T08:12:06;100869.66;;;21.09;68.32
13709;BME280;54933;51.908;7.730;2023-05-01T08:14:32;100873.16;;;21.10;68.36
13709;BME280;54933;51.908;7.730;2023-05-01T08:16:57;100872.94;;;21.11;68.34
13709;BME280;54933;51.908;7.730;2023-05-01T08:19:23;100868.38;;;21.12;68.20
13709;BME280;54933;51.908;7.730;2023-05-01T08:21:48;100870.88;;;21.13;68.38
13709;BME280;54933;51.908;7.730;2023-05-01T08:24:14;100860.91;;;21.14;68.53
13709;BME280;54933;51.908;7.730;2023-05-01T08:26:39;100868.16;;;21.13;68.42
13709;BME280;54933;51.908;7.730;2023-05-01T08:29:04;100864.63;;;21.13;68.59
13709;BME280;54933;51.908;7.730;2023-05-01T08:31:30;100855.72;;;21.12;68.63
13709;BME280;54933;51.908;7.730;2023-05-01T08:33:55;100856.72;;;21.11;68.46
13709;BME280;54933;51.908;7.730;2023-05-01T08:36:20;100865.06;;;21.10;68.34
13709;BME280;54933;51.908;7.730;2023-05-01T08:38:46;100858.00;;;21.09;68.49
13709;BME280;54933;51.908;7.730;2023-05-01T08:41:15;100858.00;;;21.09;68.52
13709;BME280;54933;51.908;7.730;2023-05-01T08:43:44;100855.34;;;20.96;68.43
13709;BME280;54933;51.908;7.730;2023-05-01T08:46:11;100861.38;;;20.91;66.22
13709;BME280;54933;51.908;7.730;2023-05-01T08:48:40;100856.38;;;20.95;65.95
13709;BME280;54933;51.908;7.730;2023-05-01T08:51:08;100868.66;;;20.97;66.40
13709;BME280;54933;51.908;7.730;2023-05-01T08:53:34;100857.63;;;20.99;66.71
13709;BME280;54933;51.908;7.730;2023-05-01T08:56:00;100849.31;;;21.00;67.12
13709;BME280;54933;51.908;7.730;2023-05-01T08:58:32;100852.63;;;21.02;67.04
13709;BME280;54933;51.908;7.730;2023-05-01T09:00:58;100852.63;;;21.02;67.25
13709;BME280;54933;51.908;7.730;2023-05-01T09:03:26;100846.16;;;21.03;67.54
13709;BME280;54933;51.908;7.730;2023-05-01T09:05:52;100843.47;;;21.03;67.45
13709;BME280;54933;51.908;7.730;2023-05-01T09:08:17;100841.81;;;21.02;67.50
13709;BME280;54933;51.908;7.730;2023-05-01T09:10:44;100847.66;;;20.99;67.43
13709;BME280;54933;51.908;7.730;2023-05-01T09:13:11;100837.56;;;20.69;64.21
13709;BME280;54933;51.908;7.730;2023-05-01T09:15:36;100835.72;;;20.63;61.72
13709;BME280;54933;51.908;7.730;2023-05-01T09:18:02;100841.94;;;20.63;61.07
13709;BME280;54933;51.908;7.730;2023-05-01T09:20:28;100840.66;;;20.72;61.23
13709;BME280;54933;51.908;7.730;2023-05-01T09:22:54;100842.53;;;20.78;61.53
13709;BME280;54933;51.908;7.730;2023-05-01T09:25:21;100834.84;;;20.82;62.29
13709;BME280;54933;51.908;7.730;2023-05-01T09:27:46;100835.22;;;20.85;62.26
13709;BME280;54933;51.908;7.730;2023-05-01T09:30:32;100829.41;;;20.88;62.85
13709;BME280;54933;51.908;7.730;2023-05-01T09:35:30;100816.06;;;20.93;63.00
13709;BME280;54933;51.908;7.730;2023-05-01T09:37:56;100820.44;;;20.94;63.40
13709;BME280;54933;51.908;7.730;2023-05-01T09:40:26;100821.06;;;20.96;63.56
13709;BME280;54933;51.908;7.730;2023-05-01T09:42:52;100814.63;;;20.97;63.82
13709;BME280;54933;51.908;7.730;2023-05-01T09:45:20;100813.56;;;20.98;64.06
13709;BME280;54933;51.908;7.730;2023-05-01T09:47:46;100809.84;;;20.99;64.44
13709;BME280;54933;51.908;7.730;2023-05-01T09:50:30;100817.72;;;21.01;64.48
13709;BME280;54933;51.908;7.730;2023-05-01T09:52:56;100813.16;;;21.01;64.63
13709;BME280;54933;51.908;7.730;2023-05-01T09:55:31;100805.88;;;21.02;64.95
13709;BME280;54933;51.908;7.730;2023-05-01T09:57:57;100807.31;;;21.04;65.18
13709;BME280;54933;51.908;7.730;2023-05-01T10:00:25;100811.66;;;21.05;65.32
13709;BME280;54933;51.908;7.730;2023-05-01T10:02:51;100809.81;;;21.06;65.27
13709;BME280;54933;51.908;7.730;2023-05-01T10:05:17;100806.88;;;21.07;65.42
13709;BME280;54933;51.908;7.730;2023-05-01T10:07:59;100807.72;;;21.08;65.64
13709;BME280;54933;51.908;7.730;2023-05-01T10:10:26;100803.97;;;21.09;65.67
13709;BME280;54933;51.908;7.730;2023-05-01T10:12:52;100807.50;;;21.09;65.66
13709;BME280;54933;51.908;7.730;2023-05-01T10:15:17;100807.28;;;21.11;65.89
13709;BME280;54933;51.908;7.730;2023-05-01T10:17:44;100808.09;;;21.11;65.93
13709;BME280;54933;51.908;7.730;2023-05-01T10:20:11;100805.19;;;21.13;65.90
13709;BME280;54933;51.908;7.730;2023-05-01T10:22:40;100799.78;;;21.13;66.16
13709;BME280;54933;51.908;7.730;2023-05-01T10:25:09;100809.56;;;21.14;65.93
13709;BME280;54933;51.908;7.730;2023-05-01T10:27:38;100803.94;;;21.15;65.95
13709;BME280;54933;51.908;7.730;2023-05-01T10:30:08;100801.00;;;21.17;65.93
13709;BME280;54933;51.908;7.730;2023-05-01T10:32:35;100796.44;;;21.17;66.23
13709;BME280;54933;51.908;7.730;2023-05-01T10:35:06;100791.47;;;21.14;65.22
13709;BME280;54933;51.908;7.730;2023-05-01T10:37:46;100797.91;;;21.13;63.99
13709;BME280;54933;51.908;7.730;2023-05-01T10:43:27;100790.63;;;21.14;65.00
13709;BME280;54933;51.908;7.730;2023-05-01T10:46:25;100782.53;;;21.14;65.21
13709;BME280;54933;51.908;7.730;2023-05-01T10:51:14;100782.31;;;21.15;65.60
13709;BME280;54933;51.908;7.730;2023-05-01T10:53:42;100772.56;;;21.14;65.51
13709;BME280;54933;51.908;7.730;2023-05-01T11:06:27;100760.06;;;21.13;66.16
13709;BME280;54933;51.908;7.730;2023-05-01T11:08:53;100764.47;;;21.14;66.17
13709;BME280;54933;51.908;7.730;2023-05-01T11:14:03;100751.13;;;21.13;66.20
13709;BME280;54933;51.908;7.730;2023-05-01T11:19:03;100750.94;;;21.14;66.46
13709;BME280;54933;51.908;7.730;2023-05-01T11:21:30;100749.88;;;21.15;66.36
13709;BME280;54933;51.908;7.730;2023-05-01T11:23:58;100752.81;;;21.14;66.64
13709;BME280;54933;51.908;7.730;2023-05-01T11:26:24;100747.19;;;21.15;66.46
13709;BME280;54933;51.908;7.730;2023-05-01T11:28:53;100754.44;;;21.15;66.77
13709;BME280;54933;51.908;7.730;2023-05-01T11:31:18;100747.41;;;21.14;66.77
13709;BME280;54933;51.908;7.730;2023-05-01T11:33:44;100745.53;;;21.14;67.13
13709;BME280;54933;51.908;7.730;2023-05-01T11:36:10;100749.28;;;21.13;67.02
13709;BME280;54933;51.908;7.730;2023-05-01T11:38:35;100751.13;;;21.13;66.96
13709;BME280;54933;51.908;7.730;2023-05-01T11:41:01;100750.31;;;21.12;67.11
13709;BME280;54933;51.908;7.730;2023-05-01T11:43:28;100752.19;;;21.12;67.26
13709;BME280;54933;51.908;7.730;2023-05-01T11:45:54;100745.13;;;21.11;67.19
13709;BME280;54933;51.908;7.730;2023-05-01T11:48:20;100739.75;;;21.11;67.29
13709;BME280;54933;51.908;7.730;2023-05-01T11:50:46;100741.59;;;21.10;66.98
13709;BME280;54933;51.908;7.730;2023-05-01T11:53:12;100744.31;;;21.10;67.24
13709;BME280;54933;51.908;7.730;2023-05-01T11:55:41;100742.66;;;21.09;67.35
13709;BME280;54933;51.908;7.730;2023-05-01T11:58:07;100746.16;;;21.10;67.14
13709;BME280;54933;51.908;7.730;2023-05-01T12:00:38;100735.34;;;21.10;67.32
13709;BME280;54933;51.908;7.730;2023-05-01T12:03:10;100737.03;;;21.11;67.45
13709;BME280;54933;51.908;7.730;2023-05-01T12:05:38;100731.25;;;21.07;66.80
13709;BME280;54933;51.908;7.730;2023-05-01T12:08:18;100731.25;;;21.07;66.16
13709;BME280;54933;51.908;7.730;2023-05-01T12:10:46;100732.06;;;21.08;65.96
13709;BME280;54933;51.908;7.730;2023-05-01T12:13:13;100734.56;;;21.09;65.94
13709;BME280;54933;51.908;7.730;2023-05-01T12:15:41;100733.94;;;21.07;65.85
13709;BME280;54933;51.908;7.730;2023-05-01T12:18:07;100734.78;;;21.08;65.76
13709;BME280;54933;51.908;7.730;2023-05-01T12:20:40;100732.88;;;21.08;65.83
13709;BME280;54933;51.908;7.730;2023-05-01T12:23:07;100730.19;;;21.08;65.98
13709;BME280;54933;51.908;7.730;2023-05-01T12:25:35;100734.56;;;21.09;66.26
13709;BME280;54933;51.908;7.730;2023-05-01T12:28:02;100732.66;;;21.10;66.16
13709;BME280;54933;51.908;7.730;2023-05-01T12:30:29;100725.38;;;21.10;66.33
13709;BME280;54933;51.908;7.730;2023-05-01T12:32:56;100727.03;;;21.11;66.42
13709;BME280;54933;51.908;7.730;2023-05-01T12:35:28;100726.00;;;21.12;66.71
13709;BME280;54933;51.908;7.730;2023-05-01T12:58:35;100714.19;;;21.07;63.01
13709;BME280;54933;51.908;7.730;2023-05-01T13:01:01;100716.66;;;21.08;62.99
13709;BME280;54933;51.908;7.730;2023-05-01T13:03:28;100718.34;;;21.09;63.17
13709;BME280;54933;51.908;7.730;2023-05-01T13:06:11;100706.47;;;21.10;63.72
13709;BME280;54933;51.908;7.730;2023-05-01T13:08:37;100714.38;;;21.12;63.89
13709;BME280;54933;51.908;7.730;2023-05-01T13:11:16;100716.84;;;21.13;63.95
13709;BME280;54933;51.908;7.730;2023-05-01T13:13:45;100700.41;;;21.15;63.92
13709;BME280;54933;51.908;7.730;2023-05-01T13:16:15;100699.16;;;21.17;64.31
13709;BME280;54933;51.908;7.730;2023-05-01T13:21:08;100701.88;;;21.17;64.56
13709;BME280;54933;51.908;7.730;2023-05-01T13:23:36;100700.81;;;21.18;64.91
13709;BME280;54933;51.908;7.730;2023-05-01T13:26:02;100696.47;;;21.17;64.92
13709;BME280;54933;51.908;7.730;2023-05-01T13:28:29;100692.69;;;21.18;65.20
13709;BME280;54933;51.908;7.730;2023-05-01T13:30:55;100700.81;;;21.18;65.06
13709;BME280;54933;51.908;7.730;2023-05-01T13:33:20;100699.75;;;21.19;65.34
13709;BME280;54933;51.908;7.730;2023-05-01T13:35:46;100691.63;;;21.19;65.27
13709;BME280;54933;51.908;7.730;2023-05-01T13:38:12;100689.78;;;21.20;65.23
13709;BME280;54933;51.908;7.730;2023-05-01T13:40:39;100687.91;;;21.20;65.21
13709;BME280;54933;51.908;7.730;2023-05-01T13:43:04;100694.97;;;21.21;65.14
13709;BME280;54933;51.908;7.730;2023-05-01T18:43:49;100875.09;;;21.40;67.07
13709;BME280;54933;51.908;7.730;2023-05-01T18:46:15;100881.09;;;21.42;67.23
13709;BME280;54933;51.908;7.730;2023-05-01T18:48:40;100880.06;;;21.43;67.07
13709;BME280;54933;51.908;7.730;2023-05-01T18:51:05;100872.78;;;21.44;67.33
13709;BME280;54933;51.908;7.730;2023-05-01T18:53:30;100876.31;;;21.44;67.53
13709;BME280;54933;51.908;7.730;2023-05-01T18:55:56;100876.94;;;21.46;67.31
13709;BME280;54933;51.908;7.730;2023-05-01T18:58:21;100879.63;;;21.46;67.47
13709;BME280;54933;51.908;7.730;2023-05-01T19:00:46;100883.97;;;21.47;67.18
13709;BME280;54933;51.908;7.730;2023-05-01T19:03:11;100885.66;;;21.48;67.48
13709;BME280;54933;51.908;7.730;2023-05-01T19:05:37;100895.41;;;21.49;67.38
13709;BME280;54933;51.908;7.730;2023-05-01T19:08:02;100903.53;;;21.49;67.34
13709;BME280;54933;51.908;7.730;2023-05-01T19:10:29;100898.97;;;21.50;67.41
13709;BME280;54933;51.908;7.730;2023-05-01T19:12:54;100891.88;;;21.49;67.53
13709;BME280;54933;51.908;7.730;2023-05-01T19:15:20;100905.19;;;21.50;67.42
13709;BME280;54933;51.908;7.730;2023-05-01T19:17:45;100908.72;;;21.51;67.51